createdAt,value
2018-06-29T00:00:08.801Z,99.90
2018-06-29T00:02:37.287Z,99.90
2018-06-29T00:05:06.409Z,99.90
2018-06-29T00:07:34.952Z,99.90
2018-06-29T00:10:03.489Z,99.90
2018-06-29T00:12:31.956Z,99.90
2018-06-29T00:15:00.436Z,99.90
2018-06-29T00:17:28.904Z,99.90
2018-06-29T00:24:53.708Z,99.90
2018-06-29T00:27:22.177Z,99.90
2018-06-29T00:29:50.660Z,99.90
2018-06-29T00:32:19.120Z,99.90
2018-06-29T00:34:47.600Z,99.90
2018-06-29T00:37:16.054Z,99.90
2018-06-29T00:39:44.578Z,99.90
2018-06-29T00:44:41.191Z,99.70
2018-06-29T00:47:09.681Z,99.80
2018-06-29T00:49:38.176Z,99.80
2018-06-29T00:52:06.728Z,99.70
2018-06-29T00:54:35.240Z,99.60
2018-06-29T00:57:03.730Z,99.80
2018-06-29T00:59:34.089Z,99.80
2018-06-29T01:02:02.682Z,99.70
2018-06-29T01:06:59.315Z,99.90
2018-06-29T01:09:27.840Z,99.80
2018-06-29T01:11:58.505Z,99.80
2018-06-29T01:14:27.012Z,99.80
2018-06-29T01:16:55.515Z,99.90
2018-06-29T01:19:23.999Z,99.90
2018-06-29T01:21:52.480Z,99.80
2018-06-29T01:24:20.971Z,99.90
2018-06-29T01:29:17.591Z,99.90
2018-06-29T01:31:46.077Z,99.90
2018-06-29T01:34:14.539Z,99.90
2018-06-29T01:36:43.070Z,99.90
2018-06-29T01:39:11.584Z,99.80
2018-06-29T01:41:40.069Z,99.80
2018-06-29T01:44:08.524Z,99.80
2018-06-29T01:46:37.011Z,99.90
2018-06-29T01:49:05.513Z,99.80
2018-06-29T01:51:34.000Z,99.80
2018-06-29T01:54:02.495Z,99.70
2018-06-29T01:56:31.048Z,99.60
2018-06-29T01:58:59.552Z,99.00
2018-06-29T02:01:28.044Z,98.90
2018-06-29T02:03:56.500Z,98.90
2018-06-29T02:06:24.964Z,99.00
2018-06-29T02:08:53.472Z,99.00
2018-06-29T02:11:21.960Z,98.90
2018-06-29T02:13:50.440Z,98.90
2018-06-29T02:16:18.891Z,98.60
2018-06-29T02:18:47.371Z,98.60
2018-06-29T02:21:15.823Z,98.70
2018-06-29T02:23:44.308Z,98.80
2018-06-29T02:26:12.767Z,98.80
2018-06-29T02:28:41.232Z,99.10
2018-06-29T02:31:09.725Z,98.70
2018-06-29T02:33:38.216Z,98.30
2018-06-29T02:36:09.491Z,97.90
2018-06-29T02:43:34.348Z,97.50
2018-06-29T02:46:02.795Z,97.60
2018-06-29T02:48:31.392Z,97.60
2018-06-29T02:50:59.958Z,97.70
2018-06-29T02:53:28.497Z,97.50
2018-06-29T02:55:56.947Z,97.50
2018-06-29T02:58:25.371Z,97.30
2018-06-29T03:00:53.834Z,97.40
2018-06-29T03:03:22.284Z,97.50
2018-06-29T03:08:18.828Z,97.60
2018-06-29T03:10:47.263Z,97.60
2018-06-29T03:13:15.716Z,97.90
2018-06-29T03:15:44.144Z,98.20
2018-06-29T03:18:12.677Z,98.40
2018-06-29T03:20:41.116Z,98.50
2018-06-29T03:23:09.636Z,98.60
2018-06-29T03:25:38.063Z,99.00
2018-06-29T03:28:06.561Z,99.00
2018-06-29T03:30:34.996Z,98.80
2018-06-29T03:33:03.523Z,98.90
2018-06-29T03:35:31.915Z,98.20
2018-06-29T03:40:28.592Z,98.30
2018-06-29T03:42:56.995Z,98.20
2018-06-29T03:45:25.474Z,98.30
2018-06-29T03:47:54.087Z,98.60
2018-06-29T03:50:22.548Z,98.50
2018-06-29T03:52:50.976Z,98.50
2018-06-29T03:57:47.524Z,98.30
2018-06-29T04:00:15.956Z,98.30
2018-06-29T04:02:44.399Z,98.50
2018-06-29T04:05:12.808Z,98.30
2018-06-29T04:07:41.261Z,98.50
2018-06-29T04:12:37.807Z,98.60
2018-06-29T04:15:06.564Z,98.50
2018-06-29T04:17:35.036Z,98.40
2018-06-29T04:20:03.515Z,98.50
2018-06-29T04:22:31.950Z,98.00
2018-06-29T04:27:33.627Z,98.10
2018-06-29T04:30:02.491Z,98.30
2018-06-29T04:32:30.913Z,98.60
2018-06-29T04:34:59.347Z,98.00
2018-06-29T04:37:27.772Z,97.80
2018-06-29T04:39:56.215Z,97.80
2018-06-29T04:42:24.631Z,97.50
2018-06-29T04:44:53.055Z,97.50
2018-06-29T04:47:21.471Z,97.20
2018-06-29T04:49:50.170Z,97.10
2018-06-29T04:52:18.580Z,97.00
2018-06-29T04:54:47.016Z,97.10
2018-06-29T04:59:43.737Z,96.50
2018-06-29T05:02:12.181Z,96.30
2018-06-29T05:04:40.595Z,96.50
2018-06-29T05:07:09.036Z,96.40
2018-06-29T05:09:37.495Z,96.80
2018-06-29T05:14:34.103Z,96.70
2018-06-29T05:17:02.587Z,97.30
2018-06-29T05:19:31.039Z,98.40
2018-06-29T05:21:59.467Z,97.90
2018-06-29T05:24:27.871Z,98.20
2018-06-29T05:26:56.331Z,98.50
2018-06-29T05:29:24.812Z,99.00
2018-06-29T05:31:53.244Z,98.70
2018-06-29T05:34:21.688Z,98.10
2018-06-29T05:39:18.247Z,98.30
2018-06-29T05:41:46.724Z,97.50
2018-06-29T05:44:15.137Z,96.50
2018-06-29T05:46:43.572Z,96.30
2018-06-29T05:49:12.014Z,97.00
2018-06-29T05:51:40.447Z,96.60
2018-06-29T05:56:37.047Z,96.20
2018-06-29T05:59:06.464Z,96.70
2018-06-29T06:01:35.065Z,97.10
2018-06-29T06:04:03.615Z,96.80
2018-06-29T06:06:32.106Z,96.10
2018-06-29T06:09:00.556Z,96.30
2018-06-29T06:11:28.987Z,95.70
2018-06-29T06:13:57.420Z,96.20
2018-06-29T06:16:25.875Z,95.30
2018-06-29T06:19:07.583Z,94.70
2018-06-29T06:21:36.019Z,94.40
2018-06-29T06:24:04.524Z,94.20
2018-06-29T06:29:01.596Z,93.80
2018-06-29T06:31:30.064Z,93.70
2018-06-29T06:33:58.508Z,93.40
2018-06-29T06:36:26.947Z,93.30
2018-06-29T06:41:23.488Z,93.20
2018-06-29T06:43:51.944Z,92.90
2018-06-29T06:46:20.426Z,92.50
2018-06-29T06:48:48.848Z,92.20
2018-06-29T06:51:17.295Z,92.10
2018-06-29T06:53:45.759Z,92.20
2018-06-29T06:56:14.191Z,91.80
2018-06-29T06:58:42.655Z,91.90
2018-06-29T07:01:11.729Z,91.90
2018-06-29T07:03:40.288Z,92.10
2018-06-29T07:06:08.844Z,92.00
2018-06-29T07:08:37.331Z,91.90
2018-06-29T07:11:07.736Z,91.70
2018-06-29T07:13:36.224Z,92.00
2018-06-29T07:16:04.772Z,92.30
2018-06-29T07:18:33.203Z,91.40
2018-06-29T07:21:04.469Z,91.40
2018-06-29T07:23:32.935Z,91.30
2018-06-29T07:26:02.011Z,91.20
2018-06-29T07:28:30.495Z,91.40
2018-06-29T07:30:58.976Z,91.00
2018-06-29T07:33:27.397Z,90.90
2018-06-29T07:35:55.823Z,90.70
2018-06-29T07:40:52.522Z,91.10
2018-06-29T07:43:20.968Z,90.60
2018-06-29T07:45:49.403Z,89.80
2018-06-29T07:48:17.852Z,90.10
2018-06-29T07:50:46.285Z,89.40
2018-06-29T07:55:42.880Z,89.70
2018-06-29T07:58:11.362Z,88.50
2018-06-29T08:00:39.784Z,88.90
2018-06-29T08:03:08.203Z,87.70
2018-06-29T08:05:36.656Z,88.20
2018-06-29T08:08:05.218Z,88.40
2018-06-29T08:10:33.920Z,88.50
2018-06-29T08:13:02.320Z,89.30
2018-06-29T08:15:31.012Z,89.10
2018-06-29T08:20:27.599Z,90.20
2018-06-29T08:22:56.027Z,88.20
2018-06-29T08:25:24.620Z,87.10
2018-06-29T08:27:53.055Z,86.20
2018-06-29T08:30:21.471Z,86.90
2018-06-29T08:32:50.004Z,85.50
2018-06-29T08:35:18.495Z,84.30
2018-06-29T08:37:46.938Z,84.70
2018-06-29T08:40:15.423Z,84.20
2018-06-29T08:42:43.867Z,83.60
2018-06-29T08:45:12.283Z,83.60
2018-06-29T08:47:40.731Z,84.70
2018-06-29T08:50:09.216Z,84.50
2018-06-29T08:52:37.660Z,83.40
2018-06-29T08:55:06.296Z,83.40
2018-06-29T08:57:34.639Z,83.20
2018-06-29T09:00:03.204Z,82.90
2018-06-29T09:02:31.663Z,83.50
2018-06-29T09:05:00.145Z,82.90
2018-06-29T09:09:56.684Z,81.30
2018-06-29T09:12:25.103Z,80.60
2018-06-29T09:14:53.572Z,81.10
2018-06-29T09:17:21.999Z,80.50
2018-06-29T09:19:50.424Z,80.70
2018-06-29T09:22:18.927Z,78.40
2018-06-29T09:24:47.339Z,77.20
2018-06-29T09:27:15.791Z,77.10
2018-06-29T09:29:44.187Z,75.00
2018-06-29T09:32:12.693Z,74.30
2018-06-29T09:34:41.107Z,73.70
2018-06-29T09:37:09.592Z,72.30
2018-06-29T09:39:37.991Z,71.00
2018-06-29T09:42:06.456Z,70.90
2018-06-29T09:44:34.896Z,70.60
2018-06-29T09:47:03.351Z,68.80
2018-06-29T09:49:31.771Z,67.80
2018-06-29T09:54:28.311Z,68.40
2018-06-29T09:59:24.856Z,68.00
2018-06-29T10:01:53.271Z,69.00
2018-06-29T10:04:21.695Z,68.90
2018-06-29T10:06:50.120Z,68.80
2018-06-29T10:09:18.551Z,68.80
2018-06-29T10:11:46.963Z,70.20
2018-06-29T10:14:15.450Z,70.50
2018-06-29T10:16:43.840Z,67.50
2018-06-29T10:19:12.250Z,66.60
2018-06-29T10:21:40.679Z,66.20
2018-06-29T10:24:09.092Z,65.10
2018-06-29T10:26:37.547Z,64.30
2018-06-29T10:29:05.968Z,65.70
2018-06-29T10:31:34.395Z,63.20
2018-06-29T10:34:02.807Z,62.40
2018-06-29T10:36:32.207Z,61.30
2018-06-29T10:39:00.655Z,60.90
2018-06-29T10:41:29.192Z,60.30
2018-06-29T10:43:57.604Z,59.10
2018-06-29T10:46:26.033Z,58.00
2018-06-29T10:48:54.496Z,56.80
2018-06-29T10:51:22.953Z,57.20
2018-06-29T10:53:51.444Z,55.80
2018-06-29T10:56:19.884Z,55.70
2018-06-29T10:58:48.373Z,57.00
2018-06-29T11:01:17.295Z,55.80
2018-06-29T11:03:45.797Z,55.20
2018-06-29T11:06:14.263Z,53.90
2018-06-29T11:08:42.969Z,54.50
2018-06-29T11:11:11.441Z,53.70
2018-06-29T11:13:39.961Z,54.40
2018-06-29T11:16:08.428Z,54.30
2018-06-29T11:18:36.882Z,53.90
2018-06-29T11:21:05.351Z,53.90
2018-06-29T11:23:33.899Z,54.20
2018-06-29T11:26:02.588Z,53.50
2018-06-29T11:28:31.003Z,54.10
2018-06-29T11:30:59.419Z,52.30
2018-06-29T11:33:27.856Z,51.30
2018-06-29T11:35:56.279Z,51.00
2018-06-29T11:38:24.728Z,51.50
2018-06-29T11:40:53.167Z,50.10
2018-06-29T11:43:21.601Z,48.70
2018-06-29T11:45:50.008Z,49.50
2018-06-29T11:48:18.487Z,48.30
2018-06-29T11:50:46.895Z,47.70
2018-06-29T11:53:15.335Z,47.40
2018-06-29T11:55:43.757Z,46.70
2018-06-29T11:58:12.199Z,46.00
2018-06-29T12:00:40.779Z,45.60
2018-06-29T12:03:09.150Z,45.60
2018-06-29T12:08:05.719Z,44.30
2018-06-29T12:10:34.180Z,44.20
2018-06-29T12:13:02.615Z,43.90
2018-06-29T12:15:31.068Z,44.20
2018-06-29T12:17:59.653Z,43.40
2018-06-29T12:20:28.128Z,42.70
2018-06-29T12:22:56.544Z,40.50
2018-06-29T12:25:25.003Z,39.10
2018-06-29T12:27:53.487Z,37.80
2018-06-29T12:30:21.929Z,36.10
2018-06-29T12:35:18.791Z,35.00
2018-06-29T12:42:43.623Z,35.30
2018-06-29T12:47:40.167Z,32.00
2018-06-29T12:50:08.667Z,29.20
2018-06-29T12:52:37.084Z,27.90
2018-06-29T12:55:08.784Z,26.40
2018-06-29T12:57:37.348Z,26.70
2018-06-29T13:00:06.426Z,25.90
2018-06-29T13:02:34.721Z,25.10
2018-06-29T13:05:03.284Z,25.20
2018-06-29T13:07:31.809Z,26.00
2018-06-29T13:10:00.290Z,26.30
2018-06-29T13:12:28.765Z,26.80
2018-06-29T13:14:57.322Z,27.10
2018-06-29T13:17:25.884Z,26.90
2018-06-29T13:19:54.364Z,26.20
2018-06-29T13:22:22.916Z,25.50
2018-06-29T13:32:15.913Z,27.40
2018-06-29T13:37:12.732Z,28.70
2018-06-29T13:39:41.333Z,28.70
2018-06-29T13:42:10.300Z,28.20
2018-06-29T13:44:38.805Z,27.70
2018-06-29T13:47:07.358Z,28.20
2018-06-29T13:49:35.829Z,29.20
2018-06-29T13:52:04.520Z,29.90
2018-06-29T13:54:32.984Z,30.40
2018-06-29T13:57:01.490Z,30.90
2018-06-29T13:59:29.989Z,32.20
2018-06-29T14:01:58.536Z,33.30
2018-06-29T14:04:27.067Z,33.40
2018-06-29T14:06:55.633Z,33.60
2018-06-29T14:09:24.161Z,33.90
2018-06-29T14:11:52.664Z,33.20
2018-06-29T14:14:21.206Z,33.70
2018-06-29T14:16:49.776Z,33.60
2018-06-29T14:19:18.304Z,33.80
2018-06-29T14:21:46.867Z,33.90
2018-06-29T14:31:40.030Z,33.60
2018-06-29T14:34:08.576Z,33.80
2018-06-29T14:36:37.080Z,34.10
2018-06-29T14:39:08.268Z,34.00
2018-06-29T14:41:36.748Z,33.30
2018-06-29T14:44:05.753Z,33.10
2018-06-29T14:46:34.221Z,33.80
2018-06-29T14:49:02.663Z,33.30
2018-06-29T14:51:31.137Z,34.00
2018-06-29T14:53:59.568Z,34.10
2018-06-29T14:56:28.008Z,34.20
2018-06-29T14:58:56.772Z,34.30
2018-06-29T15:01:25.203Z,34.90
2018-06-29T15:03:53.667Z,34.30
2018-06-29T15:06:22.221Z,34.20
2018-06-29T15:08:50.901Z,34.30
2018-06-29T15:11:19.352Z,34.30
2018-06-29T15:13:47.843Z,35.30
2018-06-29T15:16:16.280Z,33.70
2018-06-29T15:18:44.849Z,33.20
2018-06-29T15:21:13.311Z,33.50
2018-06-29T15:23:41.797Z,33.40
2018-06-29T15:26:10.300Z,33.60
2018-06-29T15:28:38.744Z,34.30
2018-06-29T15:31:08.153Z,34.00
2018-06-29T15:33:36.612Z,34.50
2018-06-29T15:36:05.063Z,35.00
2018-06-29T15:38:33.477Z,35.60
2018-06-29T15:43:30.056Z,35.60
2018-06-29T15:45:58.507Z,35.50
2018-06-29T15:48:26.943Z,35.10
2018-06-29T15:50:55.366Z,36.00
2018-06-29T15:53:23.837Z,36.40
2018-06-29T15:55:52.272Z,36.10
2018-06-29T15:58:20.776Z,37.00
2018-06-29T16:00:49.227Z,35.90
2018-06-29T16:03:17.727Z,37.00
2018-06-29T16:05:46.160Z,36.50
2018-06-29T16:08:14.615Z,36.00
2018-06-29T16:10:43.023Z,36.60
2018-06-29T16:15:39.605Z,35.80
2018-06-29T16:18:08.041Z,36.60
2018-06-29T16:20:36.479Z,35.30
2018-06-29T16:23:04.901Z,36.20
2018-06-29T16:25:33.411Z,35.70
2018-06-29T16:30:29.994Z,36.10
2018-06-29T16:32:58.442Z,35.20
2018-06-29T16:37:55.028Z,34.90
2018-06-29T16:40:23.505Z,35.60
2018-06-29T16:42:54.190Z,35.90
2018-06-29T16:45:22.846Z,36.00
2018-06-29T16:47:51.377Z,36.60
2018-06-29T16:52:48.112Z,36.30
2018-06-29T16:55:16.593Z,36.90
2018-06-29T16:57:45.121Z,36.10
2018-06-29T17:00:13.752Z,36.90
2018-06-29T17:02:42.314Z,36.70
2018-06-29T17:05:10.773Z,36.20
2018-06-29T17:07:39.227Z,36.20
2018-06-29T17:10:08.661Z,37.40
2018-06-29T17:12:37.529Z,37.10
2018-06-29T17:17:34.827Z,37.00
2018-06-29T17:20:03.374Z,37.70
2018-06-29T17:22:32.992Z,37.90
2018-06-29T17:27:29.624Z,37.90
2018-06-29T17:29:58.068Z,37.70
2018-06-29T17:32:26.527Z,38.00
2018-06-29T17:34:55.371Z,38.00
2018-06-29T17:37:23.896Z,38.00
2018-06-29T17:39:52.376Z,38.60
2018-06-29T17:42:20.886Z,39.20
2018-06-29T17:44:49.357Z,38.70
2018-06-29T17:47:17.855Z,38.40
2018-06-29T17:49:46.299Z,39.10
2018-06-29T17:54:42.963Z,39.20
2018-06-29T17:57:11.491Z,40.20
2018-06-29T17:59:40.002Z,39.60
2018-06-29T18:02:08.426Z,39.60
2018-06-29T18:04:36.921Z,39.50
2018-06-29T18:07:05.641Z,39.50
2018-06-29T18:09:33.984Z,38.90
2018-06-29T18:12:02.456Z,38.80
2018-06-29T18:14:31.104Z,39.70
2018-06-29T18:16:59.556Z,39.70
2018-06-29T18:19:28.006Z,39.80
2018-06-29T18:21:56.592Z,39.80
2018-06-29T18:24:25.076Z,40.10
2018-06-29T18:26:53.507Z,40.20
2018-06-29T18:29:21.946Z,40.40
2018-06-29T18:31:50.375Z,41.00
2018-06-29T18:34:18.826Z,41.30
2018-06-29T18:36:47.301Z,40.80
2018-06-29T18:39:16.254Z,41.00
2018-06-29T18:41:45.737Z,41.20
2018-06-29T18:44:14.556Z,41.20
2018-06-29T18:46:43.005Z,41.20
2018-06-29T18:49:11.484Z,41.50
2018-06-29T18:51:40.041Z,41.30
2018-06-29T18:54:09.289Z,41.60
2018-06-29T18:59:05.983Z,41.40
2018-06-29T19:01:34.495Z,41.80
2018-06-29T19:04:03.640Z,41.90
2018-06-29T19:09:00.456Z,42.40
2018-06-29T19:11:28.993Z,42.40
2018-06-29T19:13:57.435Z,42.70
2018-06-29T19:16:25.844Z,43.00
2018-06-29T19:21:22.391Z,43.30
2018-06-29T19:23:50.825Z,43.50
2018-06-29T19:26:19.271Z,43.90
2018-06-29T19:28:47.828Z,44.00
2018-06-29T19:31:16.343Z,44.10
2018-06-29T19:33:44.783Z,44.40
2018-06-29T19:36:13.852Z,44.50
2018-06-29T19:38:42.506Z,44.60
2018-06-29T19:41:11.293Z,44.90
2018-06-29T19:43:39.747Z,45.30
2018-06-29T19:46:08.244Z,45.70
2018-06-29T19:48:36.725Z,45.90
2018-06-29T19:51:05.429Z,46.20
2018-06-29T19:53:34.030Z,46.40
2018-06-29T19:56:02.585Z,46.70
2018-06-29T19:58:31.269Z,46.90
2018-06-29T20:00:59.763Z,47.10
2018-06-29T20:03:28.242Z,47.20
2018-06-29T20:05:56.667Z,47.50
2018-06-29T20:08:25.123Z,47.80
2018-06-29T20:10:53.600Z,48.00
2018-06-29T20:13:22.153Z,48.20
2018-06-29T20:15:51.479Z,48.40
2018-06-29T20:18:19.971Z,48.60
2018-06-29T20:20:48.441Z,48.70
2018-06-29T20:23:16.967Z,49.10
2018-06-29T20:25:45.415Z,49.50
2018-06-29T20:28:13.863Z,49.90
2018-06-29T20:30:42.304Z,50.10
2018-06-29T20:33:10.816Z,50.60
2018-06-29T20:38:09.481Z,51.00
2018-06-29T20:40:38.005Z,51.40
2018-06-29T20:43:06.699Z,51.70
2018-06-29T20:45:35.128Z,52.30
2018-06-29T20:48:04.472Z,52.50
2018-06-29T20:50:32.943Z,52.60
2018-06-29T20:53:01.404Z,52.90
2018-06-29T20:55:29.852Z,53.10
2018-06-29T21:00:26.363Z,52.90
2018-06-29T21:02:54.803Z,53.00
2018-06-29T21:05:23.244Z,53.20
2018-06-29T21:07:54.776Z,53.50
2018-06-29T21:10:23.328Z,53.60
2018-06-29T21:12:51.799Z,53.50
2018-06-29T21:15:20.231Z,53.50
2018-06-29T21:17:48.780Z,53.50
2018-06-29T21:20:17.182Z,53.50
2018-06-29T21:22:45.905Z,53.80
2018-06-29T21:27:42.541Z,54.40
2018-06-29T21:30:11.007Z,54.90
2018-06-29T21:32:39.463Z,55.30
2018-06-29T21:35:07.922Z,55.60
2018-06-29T21:37:36.347Z,55.80
2018-06-29T21:40:04.871Z,55.60
2018-06-29T21:42:33.342Z,55.30
2018-06-29T21:45:01.778Z,55.50
2018-06-29T21:47:30.180Z,55.40
2018-06-29T21:49:58.647Z,55.10
2018-06-29T21:52:27.079Z,55.20
2018-06-29T21:54:55.528Z,55.40
2018-06-29T21:57:23.995Z,55.40
2018-06-29T21:59:52.427Z,55.50
2018-06-29T22:02:23.664Z,55.60
2018-06-29T22:04:52.131Z,55.70
2018-06-29T22:07:20.636Z,56.40
2018-06-29T22:09:49.164Z,56.00
2018-06-29T22:12:17.659Z,56.20
2018-06-29T22:14:47.740Z,56.20
2018-06-29T22:17:16.680Z,56.20
2018-06-29T22:19:45.401Z,56.20
2018-06-29T22:22:13.859Z,56.10
2018-06-29T22:24:42.335Z,56.10
2018-06-29T22:27:10.786Z,56.30
2018-06-29T22:29:39.242Z,56.40
2018-06-29T22:32:07.737Z,56.60
2018-06-29T22:34:36.210Z,56.40
2018-06-29T22:37:04.732Z,56.40
2018-06-29T22:39:33.230Z,56.40
2018-06-29T22:44:29.876Z,56.40
2018-06-29T22:46:58.403Z,56.40
2018-06-29T22:49:26.832Z,56.70
2018-06-29T22:51:55.348Z,56.80
2018-06-29T22:54:23.840Z,57.50
2018-06-29T22:56:52.275Z,56.90
2018-06-29T22:59:23.661Z,57.20
2018-06-29T23:01:52.076Z,57.20
2018-06-29T23:04:20.548Z,57.80
2018-06-29T23:06:49.049Z,58.30
2018-06-29T23:09:17.451Z,58.90
2018-06-29T23:11:45.875Z,59.00
2018-06-29T23:14:14.323Z,59.50
2018-06-29T23:16:42.810Z,60.10
2018-06-29T23:19:11.255Z,60.60
2018-06-29T23:21:39.703Z,61.20
2018-06-29T23:24:08.140Z,61.60
2018-06-29T23:26:36.579Z,62.00
2018-06-29T23:29:05.073Z,63.00
2018-06-29T23:31:33.503Z,62.70
2018-06-29T23:36:30.100Z,63.40
2018-06-29T23:38:59.116Z,63.60
2018-06-29T23:41:27.536Z,64.20
2018-06-29T23:46:24.080Z,65.40
2018-06-29T23:48:52.516Z,65.90
2018-06-29T23:51:20.948Z,66.40
2018-06-29T23:56:17.528Z,66.40
2018-06-29T23:58:45.959Z,66.40
